createdAt,value
2023-05-05T00:00:20.907Z,100310.00
2023-05-05T00:02:54.945Z,100318.00
2023-05-05T00:05:28.924Z,100312.00
2023-05-05T00:08:02.650Z,100320.00
2023-05-05T00:10:38.680Z,100314.00
2023-05-05T00:13:12.897Z,100317.00
2023-05-05T00:15:49.794Z,100315.00
2023-05-05T00:18:23.360Z,100315.00
2023-05-05T00:20:57.491Z,100306.00
2023-05-05T00:23:31.230Z,100297.00
2023-05-05T00:26:06.567Z,100310.00
2023-05-05T00:28:40.291Z,100302.00
2023-05-05T00:31:13.886Z,100304.00
2023-05-05T00:33:47.740Z,100304.00
2023-05-05T00:36:22.060Z,100305.00
2023-05-05T00:38:55.632Z,100307.00
2023-05-05T00:41:30.487Z,100307.00
2023-05-05T00:44:04.193Z,100302.00
2023-05-05T00:46:38.249Z,100301.00
2023-05-05T00:49:12.598Z,100299.00
2023-05-05T00:51:46.427Z,100296.00
2023-05-05T00:54:20.301Z,100301.00
2023-05-05T00:56:55.559Z,100294.00
2023-05-05T00:59:31.640Z,100287.00
2023-05-05T01:02:05.133Z,100296.00
2023-05-05T01:04:39.025Z,100294.00
2023-05-05T01:07:31.853Z,100297.00
2023-05-05T01:10:22.641Z,100301.00
2023-05-05T01:13:15.097Z,100288.00
2023-05-05T01:15:57.295Z,100304.00
2023-05-05T01:18:44.802Z,100309.00
2023-05-05T01:21:28.321Z,100304.00
2023-05-05T01:24:43.638Z,100303.00
2023-05-05T01:28:10.840Z,100305.00
2023-05-05T01:31:11.490Z,100305.00
2023-05-05T01:33:53.066Z,100304.00
2023-05-05T01:36:40.160Z,100303.00
2023-05-05T01:39:19.390Z,100299.00
2023-05-05T01:41:59.786Z,100306.00
2023-05-05T01:44:37.861Z,100309.00
2023-05-05T01:47:14.629Z,100299.00
2023-05-05T01:49:51.642Z,100301.00
2023-05-05T01:52:28.022Z,100281.00
2023-05-05T01:55:04.313Z,100306.00
2023-05-05T01:57:42.072Z,100310.00
2023-05-05T02:00:19.542Z,100295.00
2023-05-05T02:02:57.785Z,100309.00
2023-05-05T02:05:37.167Z,100315.00
2023-05-05T02:08:13.486Z,100322.00
2023-05-05T02:10:50.871Z,100321.00
2023-05-05T02:13:26.383Z,100333.00
2023-05-05T02:16:01.429Z,100337.00
2023-05-05T02:18:37.098Z,100323.00
2023-05-05T02:21:14.390Z,100322.00
2023-05-05T02:23:52.029Z,100323.00
2023-05-05T02:26:26.919Z,100330.00
2023-05-05T02:29:07.466Z,100326.00
2023-05-05T02:31:49.476Z,100324.00
2023-05-05T02:34:27.467Z,100318.00
2023-05-05T02:37:11.299Z,100330.00
2023-05-05T02:39:58.842Z,100337.00
2023-05-05T02:42:38.432Z,100354.00
2023-05-05T02:45:17.164Z,100349.00
2023-05-05T02:47:52.241Z,100363.00
2023-05-05T02:50:26.099Z,100344.00
2023-05-05T02:53:02.547Z,100358.00
2023-05-05T02:55:45.321Z,100362.00
2023-05-05T02:58:30.710Z,100368.00
2023-05-05T03:01:18.069Z,100350.00
2023-05-05T03:04:03.081Z,100369.00
2023-05-05T03:06:43.138Z,100376.00
2023-05-05T03:09:29.307Z,100368.00
2023-05-05T03:12:08.270Z,100380.00
2023-05-05T03:14:46.737Z,100368.00
2023-05-05T03:17:23.251Z,100366.00
2023-05-05T03:19:58.147Z,100374.00
2023-05-05T03:22:32.400Z,100374.00
2023-05-05T03:25:08.647Z,100374.00
2023-05-05T03:27:43.283Z,100379.00
2023-05-05T03:30:20.553Z,100380.00
2023-05-05T03:32:54.664Z,100378.00
2023-05-05T03:35:28.687Z,100384.00
2023-05-05T03:38:03.419Z,100387.00
2023-05-05T03:40:44.236Z,100382.00
2023-05-05T03:43:19.762Z,100381.00
2023-05-05T03:45:53.551Z,100382.00
2023-05-05T03:48:27.400Z,100376.00
2023-05-05T03:51:01.507Z,100379.00
2023-05-05T03:53:35.568Z,100384.00
2023-05-05T03:56:10.935Z,100370.00
2023-05-05T03:58:45.125Z,100376.00
2023-05-05T04:01:18.801Z,100391.00
2023-05-05T04:03:52.844Z,100381.00
2023-05-05T04:06:27.111Z,100378.00
2023-05-05T04:09:01.319Z,100378.00
2023-05-05T04:11:36.473Z,100374.00
2023-05-05T04:14:10.037Z,100378.00
2023-05-05T04:16:43.912Z,100383.00
2023-05-05T04:19:17.987Z,100390.00
2023-05-05T04:21:53.511Z,100387.00
2023-05-05T04:24:27.523Z,100382.00
2023-05-05T04:27:03.582Z,100380.00
2023-05-05T04:29:37.524Z,100382.00
2023-05-05T04:32:12.072Z,100388.00
2023-05-05T04:34:45.646Z,100387.00
2023-05-05T04:37:19.163Z,100393.00
2023-05-05T04:39:53.344Z,100390.00
2023-05-05T04:42:28.908Z,100387.00
2023-05-05T04:45:02.859Z,100391.00
2023-05-05T04:47:39.483Z,100404.00
2023-05-05T04:50:15.729Z,100398.00
2023-05-05T04:52:52.017Z,100407.00
2023-05-05T04:55:26.500Z,100419.00
2023-05-05T04:58:01.675Z,100418.00
2023-05-05T05:00:37.139Z,100415.00
2023-05-05T05:03:10.731Z,100418.00
2023-05-05T05:05:44.857Z,100422.00
2023-05-05T05:08:18.862Z,100428.00
2023-05-05T05:10:52.637Z,100431.00
2023-05-05T05:13:28.050Z,100437.00
2023-05-05T05:16:02.748Z,100429.00
2023-05-05T05:18:37.167Z,100437.00
2023-05-05T05:21:11.224Z,100438.00
2023-05-05T05:23:45.193Z,100442.00
2023-05-05T05:26:19.121Z,100442.00
2023-05-05T05:28:54.690Z,100440.00
2023-05-05T05:31:28.670Z,100444.00
2023-05-05T05:34:02.964Z,100451.00
2023-05-05T05:36:37.199Z,100455.00
2023-05-05T05:39:11.967Z,100452.00
2023-05-05T05:41:45.708Z,100460.00
2023-05-05T05:44:20.977Z,100459.00
2023-05-05T05:46:54.955Z,100461.00
2023-05-05T05:49:29.044Z,100459.00
2023-05-05T05:52:04.051Z,100464.00
2023-05-05T05:54:37.872Z,100464.00
2023-05-05T05:57:11.223Z,100464.00
2023-05-05T05:59:46.745Z,100469.00
2023-05-05T06:02:21.004Z,100464.00
2023-05-05T06:04:55.166Z,100466.00
2023-05-05T06:07:28.874Z,100471.00
2023-05-05T06:10:14.373Z,100466.00
2023-05-05T06:12:52.964Z,100472.00
2023-05-05T06:15:28.357Z,100456.00
2023-05-05T06:18:02.142Z,100469.00
2023-05-05T06:20:36.779Z,100473.00
2023-05-05T06:23:10.788Z,100482.00
2023-05-05T06:25:44.720Z,100478.00
2023-05-05T06:28:19.028Z,100470.00
2023-05-05T06:30:54.192Z,100462.00
2023-05-05T06:33:27.889Z,100473.00
2023-05-05T06:36:01.947Z,100466.00
2023-05-05T06:38:36.171Z,100461.00
2023-05-05T06:41:09.867Z,100467.00
2023-05-05T06:43:45.325Z,100470.00
2023-05-05T06:46:20.654Z,100479.00
2023-05-05T06:48:54.038Z,100477.00
2023-05-05T06:51:28.556Z,100471.00
2023-05-05T06:54:02.514Z,100473.00
2023-05-05T06:56:36.097Z,100476.00
2023-05-05T06:59:10.297Z,100476.00
2023-05-05T07:01:45.531Z,100474.00
2023-05-05T07:04:19.287Z,100481.00
2023-05-05T07:06:53.407Z,100469.00
2023-05-05T07:09:27.285Z,100468.00
2023-05-05T07:12:01.145Z,100476.00
2023-05-05T07:14:35.311Z,100482.00
2023-05-05T07:17:10.588Z,100491.00
2023-05-05T07:19:44.395Z,100495.00
2023-05-05T07:22:18.169Z,100495.00
2023-05-05T07:24:53.612Z,100506.00
2023-05-05T07:27:27.837Z,100512.00
2023-05-05T07:30:02.782Z,100513.00
2023-05-05T07:32:39.553Z,100516.00
2023-05-05T07:35:14.108Z,100518.00
2023-05-05T07:37:47.761Z,100524.00
2023-05-05T07:40:21.650Z,100523.00
2023-05-05T07:42:55.343Z,100521.00
2023-05-05T07:45:30.354Z,100526.00
2023-05-05T07:48:06.138Z,100529.00
2023-05-05T07:50:39.962Z,100530.00
2023-05-05T07:53:15.503Z,100532.00
2023-05-05T07:55:49.350Z,100537.00
2023-05-05T07:58:22.929Z,100538.00
2023-05-05T08:00:57.300Z,100536.00
2023-05-05T08:03:33.482Z,100538.00
2023-05-05T08:06:09.992Z,100529.00
2023-05-05T08:08:44.903Z,100542.00
2023-05-05T08:11:18.913Z,100534.00
2023-05-05T08:13:53.148Z,100537.00
2023-05-05T08:16:26.977Z,100537.00
2023-05-05T08:19:02.623Z,100534.00
2023-05-05T08:21:36.637Z,100532.00
2023-05-05T08:24:11.135Z,100545.00
2023-05-05T08:26:45.729Z,100531.00
2023-05-05T08:29:19.590Z,100545.00
2023-05-05T08:31:53.533Z,100542.00
2023-05-05T08:34:28.537Z,100545.00
2023-05-05T08:37:02.566Z,100521.00
2023-05-05T08:39:36.957Z,100551.00
2023-05-05T08:42:10.981Z,100546.00
2023-05-05T08:44:44.892Z,100548.00
2023-05-05T08:47:19.197Z,100551.00
2023-05-05T08:49:59.142Z,100545.00
2023-05-05T08:52:41.644Z,100543.00
2023-05-05T08:55:25.958Z,100540.00
2023-05-05T08:58:03.638Z,100534.00
2023-05-05T09:00:39.097Z,100541.00
2023-05-05T09:03:15.526Z,100546.00
2023-05-05T09:05:54.738Z,100543.00
2023-05-05T09:08:29.952Z,100538.00
2023-05-05T09:11:04.271Z,100535.00
2023-05-05T09:13:38.220Z,100531.00
2023-05-05T09:16:12.161Z,100536.00
2023-05-05T09:18:46.409Z,100542.00
2023-05-05T09:21:26.816Z,100548.00
2023-05-05T09:24:09.775Z,100545.00
2023-05-05T09:26:45.986Z,100551.00
2023-05-05T09:29:22.118Z,100551.00
2023-05-05T09:32:05.973Z,100543.00
2023-05-05T09:34:40.166Z,100550.00
2023-05-05T09:37:31.056Z,100548.00
2023-05-05T09:40:05.333Z,100553.00
2023-05-05T09:42:40.382Z,100550.00
2023-05-05T09:45:29.298Z,100558.00
2023-05-05T09:48:03.696Z,100551.00
2023-05-05T09:50:47.178Z,100555.00
2023-05-05T09:53:23.157Z,100552.00
2023-05-05T09:55:58.535Z,100559.00
2023-05-05T09:58:33.003Z,100549.00
2023-05-05T10:01:07.063Z,100544.00
2023-05-05T10:03:53.245Z,100546.00
2023-05-05T10:06:42.713Z,100545.00
2023-05-05T10:09:18.439Z,100544.00
2023-05-05T10:11:53.585Z,100557.00
2023-05-05T10:14:32.806Z,100542.00
2023-05-05T10:17:08.477Z,100539.00
2023-05-05T10:19:44.316Z,100539.00
2023-05-05T10:22:20.340Z,100543.00
2023-05-05T10:25:03.771Z,100542.00
2023-05-05T10:27:45.044Z,100522.00
2023-05-05T10:30:25.042Z,100530.00
2023-05-05T10:33:27.264Z,100522.00
2023-05-05T10:36:06.537Z,100514.00
2023-05-05T10:38:40.837Z,100513.00
2023-05-05T10:41:17.459Z,100512.00
2023-05-05T10:43:52.751Z,100510.00
2023-05-05T10:46:28.996Z,100514.00
2023-05-05T10:49:14.389Z,100501.00
2023-05-05T10:51:57.992Z,100499.00
2023-05-05T10:54:41.407Z,100498.00
2023-05-05T10:57:19.910Z,100485.00
2023-05-05T10:59:53.561Z,100482.00
2023-05-05T11:02:29.676Z,100477.00
2023-05-05T11:05:15.375Z,100468.00
2023-05-05T11:07:50.831Z,100471.00
2023-05-05T11:10:24.699Z,100472.00
2023-05-05T11:13:22.501Z,100469.00
2023-05-05T11:15:57.322Z,100466.00
2023-05-05T11:18:36.153Z,100464.00
2023-05-05T11:21:18.785Z,100462.00
2023-05-05T11:23:53.442Z,100459.00
2023-05-05T11:26:53.387Z,100454.00
2023-05-05T11:29:28.885Z,100447.00
2023-05-05T11:32:15.908Z,100448.00
2023-05-05T11:34:51.903Z,100446.00
2023-05-05T11:37:26.175Z,100444.00
2023-05-05T11:40:14.520Z,100444.00
2023-05-05T11:42:49.068Z,100443.00
2023-05-05T11:45:26.348Z,100445.00
2023-05-05T11:48:27.720Z,100447.00
2023-05-05T11:51:05.526Z,100443.00
2023-05-05T11:53:43.356Z,100446.00
2023-05-05T11:56:19.649Z,100448.00
2023-05-05T11:59:10.435Z,100448.00
2023-05-05T12:01:46.039Z,100446.00
2023-05-05T12:04:20.954Z,100465.00
2023-05-05T12:06:57.045Z,100468.00
2023-05-05T12:09:31.118Z,100473.00
2023-05-05T12:12:06.183Z,100479.00
2023-05-05T12:14:50.341Z,100479.00
2023-05-05T12:17:25.779Z,100484.00
2023-05-05T12:19:59.657Z,100488.00
2023-05-05T12:22:33.565Z,100496.00
2023-05-05T12:25:09.466Z,100494.00
2023-05-05T12:27:53.853Z,100499.00
2023-05-05T12:30:27.611Z,100509.00
2023-05-05T12:33:07.346Z,100525.00
2023-05-05T12:35:42.655Z,100527.00
2023-05-05T12:38:17.649Z,100529.00
2023-05-05T12:40:56.011Z,100520.00
2023-05-05T12:43:35.493Z,100526.00
2023-05-05T12:46:12.405Z,100509.00
2023-05-05T12:49:04.927Z,100520.00
2023-05-05T12:51:39.838Z,100507.00
2023-05-05T12:54:14.004Z,100501.00
2023-05-05T12:56:49.270Z,100490.00
2023-05-05T12:59:41.194Z,100493.00
2023-05-05T13:02:16.512Z,100486.00
2023-05-05T13:04:54.731Z,100485.00
2023-05-05T13:07:28.734Z,100478.00
2023-05-05T13:10:11.269Z,100461.00
2023-05-05T13:12:45.401Z,100463.00
2023-05-05T13:15:19.313Z,100454.00
2023-05-05T13:18:01.700Z,100452.00
2023-05-05T13:20:37.335Z,100449.00
2023-05-05T13:23:11.343Z,100440.00
2023-05-05T13:25:45.621Z,100442.00
2023-05-05T13:28:19.422Z,100458.00
2023-05-05T13:30:52.951Z,100455.00
2023-05-05T13:33:26.957Z,100457.00
2023-05-05T13:36:03.752Z,100443.00
2023-05-05T13:38:37.665Z,100472.00
2023-05-05T13:41:11.324Z,100462.00
2023-05-05T13:43:45.471Z,100474.00
2023-05-05T13:46:20.314Z,100452.00
2023-05-05T13:48:56.864Z,100447.00
2023-05-05T13:51:33.047Z,100443.00
2023-05-05T13:54:08.118Z,100456.00
2023-05-05T13:56:42.571Z,100457.00
2023-05-05T13:59:16.685Z,100454.00
2023-05-05T14:01:51.175Z,100461.00
2023-05-05T14:04:25.181Z,100447.00
2023-05-05T14:07:01.351Z,100441.00
2023-05-05T14:09:35.124Z,100443.00
2023-05-05T14:12:09.965Z,100442.00
2023-05-05T14:14:43.892Z,100446.00
2023-05-05T14:17:17.600Z,100443.00
2023-05-05T14:19:51.447Z,100447.00
2023-05-05T14:22:26.669Z,100448.00
2023-05-05T14:25:01.470Z,100449.00
2023-05-05T14:27:35.414Z,100448.00
2023-05-05T14:30:10.889Z,100444.00
2023-05-05T14:32:45.010Z,100437.00
2023-05-05T14:35:19.090Z,100437.00
2023-05-05T14:37:54.152Z,100439.00
2023-05-05T14:40:29.614Z,100443.00
2023-05-05T14:43:03.620Z,100437.00
2023-05-05T14:45:37.943Z,100439.00
2023-05-05T14:48:12.119Z,100436.00
2023-05-05T14:50:46.695Z,100439.00
2023-05-05T14:53:22.381Z,100443.00
2023-05-05T14:55:57.510Z,100449.00
2023-05-05T14:58:31.362Z,100454.00
2023-05-05T15:01:05.589Z,100473.00
2023-05-05T15:03:39.613Z,100477.00
2023-05-05T15:06:14.376Z,100482.00
2023-05-05T15:08:49.735Z,100486.00
2023-05-05T15:11:23.407Z,100492.00
2023-05-05T15:13:57.731Z,100485.00
2023-05-05T15:16:33.874Z,100499.00
2023-05-05T15:19:10.866Z,100511.00
2023-05-05T15:21:44.797Z,100500.00
2023-05-05T15:24:20.309Z,100500.00
2023-05-05T15:26:54.549Z,100504.00
2023-05-05T15:29:28.473Z,100505.00
2023-05-05T15:32:02.860Z,100503.00
2023-05-05T15:34:37.768Z,100504.00
2023-05-05T15:37:11.913Z,100516.00
2023-05-05T15:39:47.919Z,100512.00
2023-05-05T15:42:21.914Z,100518.00
2023-05-05T15:44:56.298Z,100533.00
2023-05-05T15:47:30.318Z,100527.00
2023-05-05T15:50:05.038Z,100545.00
2023-05-05T15:52:38.929Z,100544.00
2023-05-05T15:55:15.237Z,100545.00
2023-05-05T15:57:49.213Z,100543.00
2023-05-05T16:00:23.952Z,100538.00
2023-05-05T16:02:58.722Z,100536.00
2023-05-05T16:05:32.379Z,100524.00
2023-05-05T16:08:10.750Z,100533.00
2023-05-05T16:10:46.188Z,100538.00
2023-05-05T16:13:20.296Z,100538.00
2023-05-05T16:15:54.186Z,100535.00
2023-05-05T16:18:27.988Z,100539.00
2023-05-05T16:21:02.929Z,100550.00
2023-05-05T16:23:36.990Z,100542.00
2023-05-05T16:26:12.287Z,100543.00
2023-05-05T16:28:47.391Z,100546.00
2023-05-05T16:31:21.230Z,100538.00
2023-05-05T16:33:55.134Z,100535.00
2023-05-05T16:36:29.008Z,100509.00
2023-05-05T16:39:02.859Z,100518.00
2023-05-05T16:41:38.494Z,100506.00
2023-05-05T16:44:12.317Z,100506.00
2023-05-05T16:46:46.758Z,100505.00
2023-05-05T16:49:20.769Z,100501.00
2023-05-05T16:51:54.967Z,100501.00
2023-05-05T16:54:28.661Z,100509.00
2023-05-05T16:57:04.017Z,100510.00
2023-05-05T16:59:38.399Z,100510.00
2023-05-05T17:02:12.395Z,100513.00
2023-05-05T17:04:46.141Z,100508.00
2023-05-05T17:07:20.294Z,100498.00
2023-05-05T17:09:54.695Z,100493.00
2023-05-05T17:12:30.160Z,100499.00
2023-05-05T17:15:04.520Z,100493.00
2023-05-05T17:17:40.063Z,100498.00
2023-05-05T17:20:15.364Z,100493.00
2023-05-05T17:22:49.067Z,100497.00
2023-05-05T17:25:22.577Z,100497.00
2023-05-05T17:27:58.383Z,100498.00
2023-05-05T17:30:32.709Z,100499.00
2023-05-05T17:33:06.176Z,100496.00
2023-05-05T17:35:39.920Z,100496.00
2023-05-05T17:38:14.076Z,100494.00
2023-05-05T17:40:47.920Z,100496.00
2023-05-05T17:43:23.067Z,100507.00
2023-05-05T17:45:58.333Z,100504.00
2023-05-05T17:48:32.737Z,100498.00
2023-05-05T17:51:06.477Z,100507.00
2023-05-05T17:53:40.371Z,100514.00
2023-05-05T17:56:14.198Z,100501.00
2023-05-05T17:58:49.684Z,100521.00
2023-05-05T18:01:23.663Z,100520.00
2023-05-05T18:03:57.636Z,100518.00
2023-05-05T18:06:33.566Z,100511.00
2023-05-05T18:09:09.808Z,100517.00
2023-05-05T18:11:45.317Z,100517.00
2023-05-05T18:14:21.268Z,100515.00
2023-05-05T18:16:55.168Z,100518.00
2023-05-05T18:19:29.230Z,100525.00
2023-05-05T18:22:03.779Z,100513.00
2023-05-05T18:24:37.838Z,100507.00
2023-05-05T18:27:12.983Z,100513.00
2023-05-05T18:29:48.742Z,100513.00
2023-05-05T18:32:23.962Z,100501.00
2023-05-05T18:34:57.993Z,100514.00
2023-05-05T18:37:32.146Z,100523.00
2023-05-05T18:40:07.599Z,100508.00
2023-05-05T18:42:41.977Z,100528.00
2023-05-05T18:45:17.670Z,100522.00
2023-05-05T18:47:51.516Z,100535.00
2023-05-05T18:50:25.782Z,100525.00
2023-05-05T18:52:59.602Z,100532.00
2023-05-05T18:55:35.850Z,100534.00
2023-05-05T18:58:11.465Z,100531.00
2023-05-05T19:00:47.158Z,100532.00
2023-05-05T19:03:22.200Z,100520.00
2023-05-05T19:05:57.682Z,100518.00
2023-05-05T19:08:31.694Z,100516.00
2023-05-05T19:11:05.712Z,100520.00
2023-05-05T19:13:41.033Z,100523.00
2023-05-05T19:16:17.307Z,100529.00
2023-05-05T19:18:50.969Z,100535.00
2023-05-05T19:21:24.752Z,100525.00
2023-05-05T19:23:58.646Z,100526.00
2023-05-05T19:26:33.688Z,100522.00
2023-05-05T19:29:07.866Z,100521.00
2023-05-05T19:31:43.559Z,100528.00
2023-05-05T19:34:17.401Z,100525.00
2023-05-05T19:36:51.562Z,100526.00
2023-05-05T19:39:25.618Z,100534.00
2023-05-05T19:41:59.795Z,100522.00
2023-05-05T19:44:38.669Z,100531.00
2023-05-05T19:47:14.127Z,100536.00
2023-05-05T19:49:49.246Z,100544.00
2023-05-05T19:52:22.979Z,100531.00
2023-05-05T19:54:57.330Z,100536.00
2023-05-05T19:57:35.320Z,100529.00
2023-05-05T20:00:11.004Z,100535.00
2023-05-05T20:02:47.443Z,100538.00
2023-05-05T20:05:21.345Z,100536.00
2023-05-05T20:07:55.056Z,100540.00
2023-05-05T20:10:29.036Z,100536.00
2023-05-05T20:13:02.902Z,100542.00
2023-05-05T20:15:36.708Z,100538.00
2023-05-05T20:18:12.392Z,100544.00
2023-05-05T20:20:46.545Z,100540.00
2023-05-05T20:23:20.495Z,100526.00
2023-05-05T20:25:54.628Z,100540.00
2023-05-05T20:28:28.304Z,100541.00
2023-05-05T20:31:03.466Z,100540.00
2023-05-05T20:33:38.775Z,100544.00
2023-05-05T20:36:13.066Z,100541.00
2023-05-05T20:38:46.645Z,100553.00
2023-05-05T20:41:20.392Z,100550.00
2023-05-05T20:43:54.185Z,100548.00
2023-05-05T20:46:30.192Z,100552.00
2023-05-05T20:49:08.352Z,100546.00
2023-05-05T20:51:42.426Z,100541.00
2023-05-05T20:54:16.136Z,100540.00
2023-05-05T20:56:50.093Z,100531.00
2023-05-05T20:59:24.254Z,100540.00
2023-05-05T21:01:59.014Z,100540.00
2023-05-05T21:04:34.252Z,100536.00
2023-05-05T21:07:08.040Z,100537.00
2023-05-05T21:09:41.825Z,100541.00
2023-05-05T21:12:15.462Z,100537.00
2023-05-05T21:14:49.294Z,100536.00
2023-05-05T21:17:24.012Z,100545.00
2023-05-05T21:19:59.292Z,100524.00
2023-05-05T21:22:32.982Z,100536.00
2023-05-05T21:25:16.404Z,100532.00
2023-05-05T21:27:51.164Z,100537.00
2023-05-05T21:30:25.461Z,100533.00
2023-05-05T21:32:59.325Z,100535.00
2023-05-05T21:35:34.564Z,100535.00
2023-05-05T21:38:08.706Z,100536.00
2023-05-05T21:40:42.862Z,100539.00
2023-05-05T21:43:17.961Z,100545.00
2023-05-05T21:46:00.378Z,100535.00
2023-05-05T21:48:34.262Z,100536.00
2023-05-05T21:51:09.552Z,100529.00
2023-05-05T21:53:43.587Z,100526.00
2023-05-05T21:56:17.297Z,100524.00
2023-05-05T21:58:51.537Z,100536.00
2023-05-05T22:01:26.008Z,100532.00
2023-05-05T22:03:59.965Z,100532.00
2023-05-05T22:06:35.196Z,100531.00
2023-05-05T22:09:09.455Z,100534.00
2023-05-05T22:11:43.328Z,100524.00
2023-05-05T22:14:17.132Z,100520.00
2023-05-05T22:16:51.481Z,100531.00
2023-05-05T22:19:25.966Z,100528.00
2023-05-05T22:22:01.443Z,100534.00
2023-05-05T22:24:35.183Z,100529.00
2023-05-05T22:27:09.281Z,100533.00
2023-05-05T22:29:44.365Z,100540.00
2023-05-05T22:32:18.021Z,100545.00
2023-05-05T22:34:51.920Z,100541.00
2023-05-05T22:37:27.678Z,100548.00
2023-05-05T22:40:01.498Z,100543.00
2023-05-05T22:42:35.907Z,100538.00
2023-05-05T22:45:11.181Z,100553.00
2023-05-05T22:47:45.601Z,100545.00
2023-05-05T22:50:19.692Z,100542.00
2023-05-05T22:52:59.017Z,100551.00
2023-05-05T22:55:33.134Z,100544.00
2023-05-05T22:58:08.141Z,100548.00
2023-05-05T23:00:42.241Z,100537.00
2023-05-05T23:03:16.714Z,100535.00
2023-05-05T23:05:54.584Z,100534.00
2023-05-05T23:08:31.074Z,100540.00
2023-05-05T23:11:05.409Z,100535.00
2023-05-05T23:13:39.541Z,100531.00
2023-05-05T23:16:13.776Z,100537.00
2023-05-05T23:18:49.585Z,100532.00
2023-05-05T23:21:23.688Z,100536.00
2023-05-05T23:23:59.211Z,100530.00
2023-05-05T23:26:33.124Z,100543.00
2023-05-05T23:29:08.105Z,100537.00
2023-05-05T23:31:42.698Z,100545.00
2023-05-05T23:34:17.487Z,100541.00
2023-05-05T23:36:51.349Z,100527.00
2023-05-05T23:39:27.734Z,100536.00
2023-05-05T23:42:01.485Z,100537.00
2023-05-05T23:44:36.708Z,100530.00
2023-05-05T23:47:12.151Z,100533.00
2023-05-05T23:49:45.776Z,100526.00
2023-05-05T23:52:19.554Z,100539.00
2023-05-05T23:54:54.746Z,100536.00
2023-05-05T23:57:29.177Z,100527.00
